Bordeaux-Mérignac Airport

LFBD · Gironde, Nouvelle-Aquitaine, 法国

罗盘
风向 的 风向 的 风向 到 风向 290° Bordeaux-Mérignac Airport 5/23
风: 3 kt, 1 beaufort

1 kt

3 kt
改变
0 ft 1.000 2.000 3.000 4.000 5.000
CAVOK
METAR LFBG 091330Z AUTO 29003KT 210V340 CAVOK 10/02 Q1034 NOSIG

METAR Bordeaux-Mérignac Airport - LFBD/BOD

Bordeaux-Mérignac Airport是,法国中的大型机场。 该机场有2条跑道: 5/23 和 11/29. 该领域的国际民航组织标志是LFBD 它的国际航空运输协会代码是BOD.

这份报告是针对2023年2月9日 14:30, 当地时间在Cognac-Châteaubernard (BA 709) Air Base进行的。

机场观察

风向为290°,速度为3 kt。 风向在210°和340°之间变化。

天气为CAVOK。这意味着在5.000 ft或MSA(最低安全高度)以下(以较高者为准)以下没有云。这也意味着没有观测到积雨云或高耸的积云,可见度为10 km 或者更多或更高。此外,不会有雾,降雨或其他重要天气。

温度为10 °C,阵风为8 °C。 露点为2 °C,相对湿度为58%。 海平面上的气压为1034 hPa (QNH)。

白天

今天,太阳从08:12升起,在18:21降落。 这适用于Bordeaux-Mérignac Airport,世界夏令时可能有所不同。 当地时间与世界标准时间之间的时差为+1 小时。 当前,没有夏令时有效。

公司介绍

在这个机场,你可以找到飞行俱乐部。 本场上唯一已知的公司是CAPAM。

体会

到Vliegles.nl去找飞行课程,跳伞和其他飞行体验。 浏览页面,了解Bordeaux-Mérignac Airport附近所有可用的活动。 你也可以使用搜索功能来寻找你所在地附近的特定飞行课程、跳伞或其他飞行体验。

跑道

Id 标题 侧风 逆风 侧风 %
5/23 046°-226° 3 kt 1 kt 90 %
11/29 107°-287° 3 kt 5 %

逆风成分最大的方向会被突出显示,并用于横风计算。 这并不一定意味着这个方向在使用。

温度 & 天气

温度 10 °C
露点 2 °C
相对湿度 58%
风寒 8 °C
Kp-index 3 (0-9)

白天

日出
08:12
中午
13:15
日落
18:18 (3:38)

小工具

你想在你的网站上有一个关于Bordeaux-Mérignac Airport的当前航空天气(METAR)的小部件吗?

显示HTML代码

我们和第三方通过cookies跟踪您在我们网站上的互联网行为。如果你继续,我们认为你同意我们的饼干政策